createdAt,value
2023-05-13T00:00:57.732Z,16.10
2023-05-13T00:05:59.816Z,17.30
2023-05-13T00:11:01.836Z,16.40
2023-05-13T00:16:03.877Z,17.90
2023-05-13T00:21:06.191Z,22.50
2023-05-13T00:26:08.121Z,15.60
2023-05-13T00:31:10.407Z,14.10
2023-05-13T00:36:12.446Z,14.60
2023-05-13T00:41:14.428Z,21.30
2023-05-13T00:46:16.541Z,15.60
2023-05-13T00:51:18.738Z,20.90
2023-05-13T00:56:21.975Z,17.30
2023-05-13T01:01:51.497Z,20.30
2023-05-13T01:07:28.822Z,20.40
2023-05-13T01:12:36.850Z,16.80
2023-05-13T01:17:50.554Z,21.70
2023-05-13T01:22:52.581Z,18.60
2023-05-13T01:27:54.708Z,22.40
2023-05-13T01:38:00.596Z,19.90
2023-05-13T01:43:02.457Z,17.70
2023-05-13T01:48:04.983Z,17.90
2023-05-13T01:53:16.880Z,19.00
2023-05-13T01:58:21.156Z,13.40
2023-05-13T02:03:23.170Z,20.60
2023-05-13T02:08:25.425Z,18.90
2023-05-13T02:13:27.273Z,17.90
2023-05-13T02:18:29.089Z,18.20
2023-05-13T02:23:30.811Z,13.20
2023-05-13T02:28:32.488Z,15.60
2023-05-13T02:33:34.281Z,16.20
2023-05-13T02:38:36.121Z,15.10
2023-05-13T02:43:38.240Z,14.30
2023-05-13T02:48:40.465Z,20.20
2023-05-13T02:53:42.228Z,20.80
2023-05-13T02:58:45.031Z,22.00
2023-05-13T03:03:47.284Z,21.10
2023-05-13T03:08:49.027Z,27.00
2023-05-13T03:13:50.764Z,21.60
2023-05-13T03:18:52.525Z,19.40
2023-05-13T03:28:56.475Z,23.40
2023-05-13T03:33:58.639Z,28.40
2023-05-13T03:39:00.654Z,24.50
2023-05-13T03:44:02.971Z,28.60
2023-05-13T03:49:04.821Z,25.70
2023-05-13T03:54:06.647Z,23.70
2023-05-13T03:59:08.384Z,21.60
2023-05-13T04:04:11.044Z,22.50
2023-05-13T04:09:12.727Z,29.80
2023-05-13T04:14:14.478Z,26.20
2023-05-13T04:19:18.411Z,19.10
2023-05-13T04:24:20.111Z,20.60
2023-05-13T04:29:24.013Z,22.80
2023-05-13T04:34:26.006Z,24.60
2023-05-13T04:39:27.803Z,20.10
2023-05-13T04:44:30.003Z,20.50
2023-05-13T04:49:32.043Z,20.80
2023-05-13T04:54:36.007Z,20.60
2023-05-13T04:59:37.928Z,19.90
2023-05-13T05:04:41.617Z,21.40
2023-05-13T05:09:48.113Z,18.90
2023-05-13T05:14:49.913Z,29.40
2023-05-13T05:19:51.768Z,20.50
2023-05-13T05:24:53.693Z,24.10
2023-05-13T05:29:55.467Z,19.30
2023-05-13T05:39:59.435Z,27.10
2023-05-13T05:45:01.885Z,26.30
2023-05-13T05:50:04.411Z,28.50
2023-05-13T05:55:07.190Z,19.80
2023-05-13T06:00:09.436Z,25.20
2023-05-13T06:05:17.020Z,24.90
2023-05-13T06:10:20.029Z,24.60
2023-05-13T06:15:23.108Z,35.30
2023-05-13T06:20:24.894Z,38.50
2023-05-13T06:25:26.666Z,40.30
2023-05-13T06:30:28.418Z,37.10
2023-05-13T06:40:33.320Z,24.50
2023-05-13T06:45:35.446Z,34.50
2023-05-13T06:50:37.323Z,26.70
2023-05-13T06:55:41.828Z,19.40
2023-05-13T07:00:44.228Z,16.50
2023-05-13T07:05:46.216Z,20.40
2023-05-13T07:10:47.897Z,21.50
2023-05-13T07:15:49.990Z,17.80
2023-05-13T07:20:52.478Z,12.60
2023-05-13T07:25:54.216Z,20.50
2023-05-13T07:30:56.070Z,10.90
2023-05-13T07:35:57.913Z,8.70
2023-05-13T07:40:59.665Z,7.30
2023-05-13T07:46:03.276Z,9.00
2023-05-13T07:51:05.241Z,8.10
2023-05-13T07:56:07.879Z,11.20
2023-05-13T08:01:09.578Z,12.20
2023-05-13T08:06:11.520Z,10.10
2023-05-13T08:11:13.717Z,7.90
2023-05-13T08:16:15.380Z,7.80
2023-05-13T08:21:17.238Z,8.00
2023-05-13T08:26:19.232Z,12.50
2023-05-13T08:31:20.962Z,9.30
2023-05-13T08:36:23.314Z,7.50
2023-05-13T08:41:25.059Z,12.20
2023-05-13T08:46:32.889Z,7.50
2023-05-13T08:51:34.686Z,10.90
2023-05-13T08:56:37.225Z,7.10
2023-05-13T09:01:39.516Z,9.90
2023-05-13T09:06:41.352Z,10.50
2023-05-13T09:11:44.728Z,4.90
2023-05-13T09:16:47.717Z,9.40
2023-05-13T09:21:49.656Z,8.20
2023-05-13T09:26:51.802Z,10.20
2023-05-13T09:31:59.483Z,8.90
2023-05-13T09:37:02.476Z,7.80
2023-05-13T09:42:05.432Z,8.20
2023-05-13T09:47:11.273Z,6.80
2023-05-13T09:52:16.898Z,6.70
2023-05-13T09:57:18.570Z,8.00
2023-05-13T10:02:20.448Z,10.10
2023-05-13T10:07:25.883Z,7.20
2023-05-13T10:12:30.445Z,10.60
2023-05-13T10:17:32.736Z,7.00
2023-05-13T10:22:37.299Z,9.40
2023-05-13T10:27:39.905Z,7.30
2023-05-13T10:32:41.950Z,8.10
2023-05-13T10:37:52.582Z,15.90
2023-05-13T10:43:15.876Z,9.60
2023-05-13T10:48:18.974Z,6.60
2023-05-13T10:53:24.110Z,8.60
2023-05-13T10:58:33.850Z,10.00
2023-05-13T11:03:40.222Z,8.70
2023-05-13T11:08:44.039Z,9.80
2023-05-13T11:13:45.668Z,14.00
2023-05-13T11:18:47.569Z,9.50
2023-05-13T11:24:04.188Z,11.30
2023-05-13T11:29:06.538Z,6.80
2023-05-13T11:34:16.642Z,8.10
2023-05-13T11:39:21.461Z,6.70
2023-05-13T11:44:25.866Z,6.30
2023-05-13T11:49:37.035Z,5.70
2023-05-13T11:54:48.475Z,7.40
2023-05-13T12:00:02.337Z,15.70
2023-05-13T12:05:07.195Z,8.50
2023-05-13T12:10:09.379Z,8.80
2023-05-13T12:15:22.237Z,11.30
2023-05-13T12:20:25.217Z,12.50
2023-05-13T12:25:44.110Z,7.90
2023-05-13T12:30:57.085Z,7.40
2023-05-13T12:36:21.760Z,10.80
2023-05-13T12:41:25.898Z,10.00
2023-05-13T12:46:28.080Z,7.80
2023-05-13T12:51:30.675Z,8.30
2023-05-13T12:56:32.480Z,8.30
2023-05-13T13:01:34.970Z,7.60
2023-05-13T13:06:36.869Z,5.30
2023-05-13T13:11:39.293Z,7.70
2023-05-13T13:16:43.881Z,7.20
2023-05-13T13:21:45.534Z,9.60
2023-05-13T13:26:47.277Z,11.40
2023-05-13T13:31:49.164Z,6.30
2023-05-13T13:36:50.989Z,12.20
2023-05-13T13:41:52.736Z,8.10
2023-05-13T13:46:54.454Z,10.20
2023-05-13T13:51:56.340Z,20.50
2023-05-13T13:56:58.452Z,10.00
2023-05-13T14:02:00.264Z,15.50
2023-05-13T14:07:02.046Z,11.40
2023-05-13T14:12:04.167Z,9.50
2023-05-13T14:17:05.891Z,9.20
2023-05-13T14:22:07.524Z,7.00
2023-05-13T14:32:11.031Z,6.30
2023-05-13T14:37:12.787Z,8.50
2023-05-13T14:42:14.843Z,38.10
2023-05-13T14:47:16.547Z,9.50
2023-05-13T14:57:20.144Z,10.10
2023-05-13T15:02:22.098Z,8.30
2023-05-13T15:07:23.929Z,12.10
2023-05-13T15:12:26.324Z,20.60
2023-05-13T15:17:29.757Z,9.40
2023-05-13T15:22:33.350Z,10.60
2023-05-13T15:27:35.991Z,11.20
2023-05-13T15:32:37.666Z,12.10
2023-05-13T15:37:42.654Z,8.90
2023-05-13T15:42:44.698Z,9.50
2023-05-13T15:47:46.514Z,11.30
2023-05-13T15:52:48.300Z,9.20
2023-05-13T15:57:50.794Z,7.90
2023-05-13T16:02:52.503Z,11.00
2023-05-13T16:07:54.482Z,7.90
2023-05-13T16:17:57.790Z,11.50
2023-05-13T16:22:59.553Z,8.80
2023-05-13T16:28:01.437Z,9.80
2023-05-13T16:33:03.629Z,8.40
2023-05-13T16:38:05.388Z,11.10
2023-05-13T16:43:07.444Z,10.50
2023-05-13T16:48:09.118Z,9.50
2023-05-13T16:58:12.748Z,13.00
2023-05-13T17:03:14.673Z,12.80
2023-05-13T17:08:18.942Z,10.40
2023-05-13T17:13:21.309Z,9.60
2023-05-13T17:18:22.931Z,11.60
2023-05-13T17:23:24.549Z,9.20
2023-05-13T17:28:26.256Z,8.70
2023-05-13T17:33:28.140Z,9.00
2023-05-13T17:38:29.914Z,7.90
2023-05-13T17:43:31.692Z,8.20
2023-05-13T17:53:35.379Z,10.80
2023-05-13T17:58:37.267Z,8.60
2023-05-13T18:08:40.839Z,10.20
2023-05-13T18:18:44.434Z,9.40
2023-05-13T18:23:46.627Z,9.50
2023-05-13T18:28:48.415Z,11.20
2023-05-13T18:33:50.160Z,12.60
2023-05-13T18:38:52.026Z,12.70
2023-05-13T18:48:55.708Z,11.40
2023-05-13T18:53:57.404Z,13.80
2023-05-13T18:58:59.034Z,14.10
2023-05-13T19:04:01.097Z,13.70
2023-05-13T19:09:02.940Z,13.00
2023-05-13T19:14:04.621Z,16.00
2023-05-13T19:19:06.288Z,15.60
2023-05-13T19:24:08.068Z,20.90
2023-05-13T19:29:10.879Z,20.80
2023-05-13T19:34:14.482Z,19.20
2023-05-13T19:39:16.280Z,16.50
2023-05-13T19:44:19.171Z,16.60
2023-05-13T19:49:20.822Z,17.10
2023-05-13T19:54:22.454Z,18.60
2023-05-13T19:59:24.262Z,18.60
2023-05-13T20:04:25.967Z,15.10
2023-05-13T20:09:27.637Z,16.30
2023-05-13T20:14:51.923Z,13.20
2023-05-13T20:19:54.731Z,16.90
2023-05-13T20:24:56.410Z,14.30
2023-05-13T20:30:00.061Z,16.00
2023-05-13T20:35:02.054Z,18.40
2023-05-13T20:40:04.632Z,20.30
2023-05-13T20:45:08.607Z,17.80
2023-05-13T20:50:11.106Z,15.50
2023-05-13T20:55:15.388Z,17.80
2023-05-13T21:00:17.524Z,15.00
2023-05-13T21:05:19.323Z,19.10
2023-05-13T21:10:22.341Z,23.60
2023-05-13T21:15:32.519Z,23.40
2023-05-13T21:20:34.229Z,19.70
2023-05-13T21:25:36.326Z,28.90
2023-05-13T21:30:38.024Z,26.70
2023-05-13T21:35:39.775Z,30.10
2023-05-13T21:40:43.412Z,21.60
2023-05-13T21:50:50.937Z,23.80
2023-05-13T21:55:55.598Z,22.70
2023-05-13T22:01:00.199Z,21.60
2023-05-13T22:06:02.942Z,21.20
2023-05-13T22:16:06.339Z,24.10
2023-05-13T22:21:08.086Z,28.20
2023-05-13T22:26:10.119Z,26.40
2023-05-13T22:31:11.827Z,26.30
2023-05-13T22:36:13.964Z,28.40
2023-05-13T22:41:15.744Z,27.00
2023-05-13T22:46:17.544Z,19.00
2023-05-13T22:51:19.287Z,22.80
2023-05-13T22:56:21.972Z,24.10
2023-05-13T23:01:23.771Z,19.90
2023-05-13T23:06:28.693Z,20.30
2023-05-13T23:11:32.528Z,25.20
2023-05-13T23:16:36.185Z,30.00
2023-05-13T23:21:37.991Z,33.30
2023-05-13T23:26:39.766Z,28.80
2023-05-13T23:31:41.521Z,31.90
2023-05-13T23:36:43.288Z,24.90
2023-05-13T23:41:45.659Z,22.00
2023-05-13T23:46:50.500Z,24.20
2023-05-13T23:52:02.726Z,21.60
2023-05-13T23:57:04.508Z,25.60
